NCAR-RAP Real-Time Weather Data

Output produced by METARs form (10 April 2020  06:46 UTC)
found at http://weather.rap.ucar.edu/surface/
 
KFAR 100553Z 27004KT 10SM CLR M02/M04 A3012 RMK AO2 SLP211 T10171044 10039 21022 400441022 56002
KFAR 100453Z 27008KT 10SM CLR M01/M04 A3012 RMK AO2 SLP211 T10111039
KFAR 100353Z 29008KT 10SM CLR 00/M04 A3012 RMK AO2 SLP212 T00001039
KFAR 100253Z 29006KT 10SM CLR 00/M03 A3012 RMK AO2 SLP213 T00001033 55000
KFAR 100153Z 07003KT 10SM CLR 01/M03 A3013 RMK AO2 SLP214 T00061028
KFAR 100053Z 33009KT 10SM SCT045 02/M03 A3011 RMK AO2 SLP210 T00221033
KFAR 092353Z 32015KT 10SM OVC040 03/M04 A3012 RMK AO2 PK WND 33026/2308 SLP213 60000 T00331039 10044 21006 56003
KFAR 092253Z 33017KT 10SM BKN040 03/M03 A3012 RMK AO2 PK WND 33028/2240 SLP212 T00331033
KFAR 092153Z 33016G24KT 10SM SCT034 04/M03 A3012 RMK AO2 PK WND 34027/2102 SLP210 T00441028
KFAR 092053Z 33016KT 10SM FEW024 BKN031 02/M04 A3013 RMK AO2 PK WND 33029/2005 SLP215 60000 T00221039 51005
KFAR 091953Z 34018KT 10SM BKN021 OVC028 01/M03 A3013 RMK AO2 PK WND 33031/1854 SLP216 T00111033
KFAR 091853Z 33021KT 10SM OVC025 M01/M05 A3013 RMK AO2 PK WND 32032/1838 UPB07E09B40E49SNE06B09E31 SLP216 P0000 T10061050
KFAR 091826Z 32018G27KT 9SM -SN BKN027 OVC034 M01/M05 A3012 RMK AO2 PK WND 32029/1813 UPB07E09SNE06B09 P0000 T10061050
KFAR 091753Z 34022G30KT 9SM -SN FEW020 BKN036 OVC043 00/M04 A3012 RMK AO2 PK WND 33030/1703 SNB43 SLP211 P0000 60000 T00001044 10006 21022 51031
KFAR 091653Z 32023G31KT 10SM FEW025 SCT035 OVC045 M01/M05 A3010 RMK AO2 PK WND 34031/1644 SNB05E46 SLP204 P0000 T10061050
KFAR 091638Z 34024G30KT 9SM -SN FEW021 BKN036 OVC044 M01/M05 A3008 RMK AO2 PK WND 33030/1637 SNB05 P0000 T10061050
KFAR 091630Z 33019KT 2SM -SN BR FEW017 BKN036 OVC044 M01/M03 A3008 RMK AO2 PK WND 33030/1602 SNB05 P0000 T10111033
KFAR 091625Z 34018G28KT 3/4SM -SN BR FEW013 SCT029 OVC036 M02/M03 A3008 RMK AO2 PK WND 33030/1602 SNB05 P0000 T10171033
KFAR 091616Z 33022G29KT 1 3/4SM -SN BKN031 BKN038 OVC046 M02/M04 A3007 RMK AO2 PK WND 33030/1602 SNB05 P0000 T10171044
KFAR 091553Z 34017KT 10SM SCT027 BKN039 BKN050 00/M06 A3005 RMK AO2 PK WND 33032/1501 SLP189 T00001061
KFAR 091517Z 35020G31KT 10SM FEW021 FEW026 BKN039 00/M05 A3004 RMK AO2 PK WND 33032/1501 T00001050
KFAR 091453Z 33019G28KT 10SM BKN024 BKN030 OVC037 M01/M05 A3002 RMK AO2 PK WND 31028/1445 SLP179 T10061050 51024
KFAR 091427Z 32015G26KT 10SM BKN023 BKN028 M01/M05 A3001 RMK AO2 PK WND 31026/1421 T10111050
KFAR 091353Z 32016KT 10SM CLR M01/M05 A3000 RMK AO2 SLP171 T10111050
KFAR 091253Z 31012KT 10SM CLR M02/M05 A2997 RMK AO2 PK WND 30028/1157 SLP162 T10221050
KFAR 091153Z 31020G26KT 10SM FEW019 SCT026 BKN034 M02/M06 A2995 RMK AO2 PK WND 32026/1153 SLP153 60000 T10221056 10000 21022 53026
KFAR 091053Z 29013KT 10SM BKN028 BKN035 M02/M04 A2992 RMK AO2 SLP142 T10171044
KFAR 090953Z 31013KT 10SM FEW018 BKN055 M02/M03 A2989 RMK AO2 PK WND 31031/0914 SNB08E44 SLP131 P0000 T10171033
KFAR 090942Z 31013KT 7SM -SN FEW015 SCT020 OVC055 M02/M03 A2988 RMK AO2 PK WND 31031/0914 SNB08 P0000 T10171033
KFAR 090933Z 31016G24KT 2SM -SN BR FEW018 BKN025 OVC055 M02/M03 A2988 RMK AO2 PK WND 31031/0914 VIS 1 1/2V4 SNB08 P0000 T10171028
KFAR 090923Z 31016G31KT 1 3/4SM -SN BR FEW018 BKN028 OVC042 M02/M03 A2988 RMK AO2 PK WND 31031/0914 VIS 1V4 SNB08 P0000 T10171033
KFAR 090853Z 29009G21KT 10SM BKN039 BKN048 OVC100 M01/M04 A2987 RMK AO2 SLP124 T10061039 56011
KFAR 090753Z 28008KT 10SM SCT070 M01/M04 A2988 RMK AO2 SLP127 T10111039